You are listening to:
T67 CTAF/Clearance - Fort Worth, Texas, United States

KAFW 171853Z 09003KT 10SM FEW040 32/19 A2999 RMK AO2 SLP141 T03170189

If stream doesn't start automatically press the play button
If stream stops then reload player then press play